sensor_id;sensor_type;location;lat;lon;timestamp;P1;durP1;ratioP1;P2;durP2;ratioP2
39454;SDS011;25155;41.890;23.446;2023-11-18T00:01:55;3.97;;;2.58;;
39454;SDS011;25155;41.890;23.446;2023-11-18T00:04:24;4.07;;;2.75;;
39454;SDS011;25155;41.890;23.446;2023-11-18T00:06:51;4.70;;;3.05;;
39454;SDS011;25155;41.890;23.446;2023-11-18T00:09:20;5.97;;;2.90;;
39454;SDS011;25155;41.890;23.446;2023-11-18T00:11:50;5.43;;;3.75;;
39454;SDS011;25155;41.890;23.446;2023-11-18T00:14:17;5.47;;;3.63;;
39454;SDS011;25155;41.890;23.446;2023-11-18T00:16:46;2.60;;;1.65;;
39454;SDS011;25155;41.890;23.446;2023-11-18T00:19:13;2.95;;;1.60;;
39454;SDS011;25155;41.890;23.446;2023-11-18T00:21:42;1.40;;;1.30;;
39454;SDS011;25155;41.890;23.446;2023-11-18T00:24:09;1.08;;;1.05;;
39454;SDS011;25155;41.890;23.446;2023-11-18T00:26:37;0.70;;;0.70;;
39454;SDS011;25155;41.890;23.446;2023-11-18T00:29:04;1.60;;;0.80;;
39454;SDS011;25155;41.890;23.446;2023-11-18T00:31:31;1.35;;;0.77;;
39454;SDS011;25155;41.890;23.446;2023-11-18T00:33:58;1.25;;;0.60;;
39454;SDS011;25155;41.890;23.446;2023-11-18T00:36:25;0.57;;;0.57;;
39454;SDS011;25155;41.890;23.446;2023-11-18T00:38:55;0.60;;;0.60;;
39454;SDS011;25155;41.890;23.446;2023-11-18T00:41:22;0.77;;;0.77;;
39454;SDS011;25155;41.890;23.446;2023-11-18T00:43:49;0.70;;;0.70;;
39454;SDS011;25155;41.890;23.446;2023-11-18T00:46:18;0.63;;;0.60;;
39454;SDS011;25155;41.890;23.446;2023-11-18T00:48:46;0.82;;;0.82;;
39454;SDS011;25155;41.890;23.446;2023-11-18T00:51:13;1.55;;;0.65;;
39454;SDS011;25155;41.890;23.446;2023-11-18T00:53:41;0.75;;;0.75;;
39454;SDS011;25155;41.890;23.446;2023-11-18T00:56:10;0.68;;;0.68;;
39454;SDS011;25155;41.890;23.446;2023-11-18T00:58:43;1.23;;;0.77;;
39454;SDS011;25155;41.890;23.446;2023-11-18T01:01:10;0.70;;;0.65;;
39454;SDS011;25155;41.890;23.446;2023-11-18T01:03:38;0.63;;;0.63;;
39454;SDS011;25155;41.890;23.446;2023-11-18T01:06:05;0.45;;;0.45;;
39454;SDS011;25155;41.890;23.446;2023-11-18T01:08:33;0.32;;;0.32;;
39454;SDS011;25155;41.890;23.446;2023-11-18T01:11:00;0.50;;;0.50;;
39454;SDS011;25155;41.890;23.446;2023-11-18T01:13:31;0.60;;;0.60;;
39454;SDS011;25155;41.890;23.446;2023-11-18T01:15:58;0.70;;;0.70;;
39454;SDS011;25155;41.890;23.446;2023-11-18T01:18:25;0.40;;;0.40;;
39454;SDS011;25155;41.890;23.446;2023-11-18T01:20:52;0.50;;;0.50;;
39454;SDS011;25155;41.890;23.446;2023-11-18T01:23:20;0.57;;;0.57;;
39454;SDS011;25155;41.890;23.446;2023-11-18T01:25:47;1.95;;;0.63;;
39454;SDS011;25155;41.890;23.446;2023-11-18T01:28:16;0.40;;;0.40;;
39454;SDS011;25155;41.890;23.446;2023-11-18T01:30:48;0.65;;;0.60;;
39454;SDS011;25155;41.890;23.446;2023-11-18T01:33:15;0.30;;;0.30;;
39454;SDS011;25155;41.890;23.446;2023-11-18T01:35:42;0.60;;;0.60;;
39454;SDS011;25155;41.890;23.446;2023-11-18T01:38:09;0.55;;;0.55;;
39454;SDS011;25155;41.890;23.446;2023-11-18T01:40:37;1.65;;;0.60;;
39454;SDS011;25155;41.890;23.446;2023-11-18T01:43:04;0.55;;;0.55;;
39454;SDS011;25155;41.890;23.446;2023-11-18T01:45:37;0.38;;;0.32;;
39454;SDS011;25155;41.890;23.446;2023-11-18T01:48:07;0.50;;;0.50;;
39454;SDS011;25155;41.890;23.446;2023-11-18T01:50:35;0.47;;;0.47;;
39454;SDS011;25155;41.890;23.446;2023-11-18T01:53:05;0.28;;;0.28;;
39454;SDS011;25155;41.890;23.446;2023-11-18T01:55:35;0.85;;;0.57;;
39454;SDS011;25155;41.890;23.446;2023-11-18T01:58:04;0.40;;;0.40;;
39454;SDS011;25155;41.890;23.446;2023-11-18T02:00:35;0.60;;;0.60;;
39454;SDS011;25155;41.890;23.446;2023-11-18T02:03:04;2.63;;;0.43;;
39454;SDS011;25155;41.890;23.446;2023-11-18T02:05:33;0.40;;;0.40;;
39454;SDS011;25155;41.890;23.446;2023-11-18T02:08:00;0.50;;;0.50;;
39454;SDS011;25155;41.890;23.446;2023-11-18T02:10:29;0.65;;;0.65;;
39454;SDS011;25155;41.890;23.446;2023-11-18T02:13:01;0.43;;;0.43;;
39454;SDS011;25155;41.890;23.446;2023-11-18T02:15:37;0.65;;;0.65;;
39454;SDS011;25155;41.890;23.446;2023-11-18T02:18:07;0.60;;;0.60;;
39454;SDS011;25155;41.890;23.446;2023-11-18T02:20:37;0.57;;;0.57;;
39454;SDS011;25155;41.890;23.446;2023-11-18T02:23:06;0.50;;;0.50;;
39454;SDS011;25155;41.890;23.446;2023-11-18T02:28:11;0.47;;;0.35;;
39454;SDS011;25155;41.890;23.446;2023-11-18T02:30:39;0.40;;;0.40;;
39454;SDS011;25155;41.890;23.446;2023-11-18T02:33:11;0.68;;;0.68;;
39454;SDS011;25155;41.890;23.446;2023-11-18T02:35:46;2.42;;;0.77;;
39454;SDS011;25155;41.890;23.446;2023-11-18T02:38:19;0.60;;;0.60;;
39454;SDS011;25155;41.890;23.446;2023-11-18T02:40:56;0.80;;;0.80;;
39454;SDS011;25155;41.890;23.446;2023-11-18T02:43:26;0.70;;;0.70;;
39454;SDS011;25155;41.890;23.446;2023-11-18T02:45:55;0.50;;;0.50;;
39454;SDS011;25155;41.890;23.446;2023-11-18T02:48:26;0.60;;;0.60;;
39454;SDS011;25155;41.890;23.446;2023-11-18T02:50:54;0.70;;;0.70;;
39454;SDS011;25155;41.890;23.446;2023-11-18T02:53:21;0.77;;;0.77;;
39454;SDS011;25155;41.890;23.446;2023-11-18T02:55:50;0.82;;;0.82;;
39454;SDS011;25155;41.890;23.446;2023-11-18T02:58:19;0.73;;;0.73;;
39454;SDS011;25155;41.890;23.446;2023-11-18T03:00:46;0.73;;;0.73;;
39454;SDS011;25155;41.890;23.446;2023-11-18T03:03:13;0.80;;;0.80;;
39454;SDS011;25155;41.890;23.446;2023-11-18T03:05:42;0.60;;;0.60;;
39454;SDS011;25155;41.890;23.446;2023-11-18T03:08:11;0.88;;;0.88;;
39454;SDS011;25155;41.890;23.446;2023-11-18T03:10:39;1.02;;;1.00;;
39454;SDS011;25155;41.890;23.446;2023-11-18T03:13:10;0.60;;;0.60;;
39454;SDS011;25155;41.890;23.446;2023-11-18T03:15:39;1.00;;;1.00;;
39454;SDS011;25155;41.890;23.446;2023-11-18T03:18:06;0.90;;;0.90;;
39454;SDS011;25155;41.890;23.446;2023-11-18T03:20:33;0.60;;;0.60;;
39454;SDS011;25155;41.890;23.446;2023-11-18T03:23:01;0.80;;;0.80;;
39454;SDS011;25155;41.890;23.446;2023-11-18T03:25:28;0.93;;;0.93;;
39454;SDS011;25155;41.890;23.446;2023-11-18T03:27:56;0.93;;;0.90;;
39454;SDS011;25155;41.890;23.446;2023-11-18T03:30:23;0.80;;;0.80;;
39454;SDS011;25155;41.890;23.446;2023-11-18T03:32:52;0.80;;;0.80;;
39454;SDS011;25155;41.890;23.446;2023-11-18T03:35:19;1.65;;;0.70;;
39454;SDS011;25155;41.890;23.446;2023-11-18T03:37:46;0.68;;;0.68;;
39454;SDS011;25155;41.890;23.446;2023-11-18T03:40:14;0.45;;;0.45;;
39454;SDS011;25155;41.890;23.446;2023-11-18T03:42:41;4.50;;;0.90;;
39454;SDS011;25155;41.890;23.446;2023-11-18T03:45:12;0.80;;;0.80;;
39454;SDS011;25155;41.890;23.446;2023-11-18T03:47:40;1.00;;;0.93;;
39454;SDS011;25155;41.890;23.446;2023-11-18T03:50:09;0.90;;;0.90;;
39454;SDS011;25155;41.890;23.446;2023-11-18T03:52:38;0.80;;;0.80;;
39454;SDS011;25155;41.890;23.446;2023-11-18T03:55:09;0.80;;;0.80;;
39454;SDS011;25155;41.890;23.446;2023-11-18T03:57:36;1.15;;;1.10;;
39454;SDS011;25155;41.890;23.446;2023-11-18T04:00:04;1.60;;;0.70;;
39454;SDS011;25155;41.890;23.446;2023-11-18T04:02:32;0.98;;;0.90;;
39454;SDS011;25155;41.890;23.446;2023-11-18T04:05:01;0.93;;;0.93;;
39454;SDS011;25155;41.890;23.446;2023-11-18T04:07:30;0.90;;;0.90;;
39454;SDS011;25155;41.890;23.446;2023-11-18T04:09:57;1.33;;;1.23;;
39454;SDS011;25155;41.890;23.446;2023-11-18T04:12:26;0.90;;;0.90;;
39454;SDS011;25155;41.890;23.446;2023-11-18T04:14:56;1.10;;;1.00;;
39454;SDS011;25155;41.890;23.446;2023-11-18T04:17:23;1.05;;;1.00;;
39454;SDS011;25155;41.890;23.446;2023-11-18T04:19:53;1.13;;;1.13;;
39454;SDS011;25155;41.890;23.446;2023-11-18T04:22:21;0.93;;;0.90;;
39454;SDS011;25155;41.890;23.446;2023-11-18T04:24:49;1.33;;;1.10;;
39454;SDS011;25155;41.890;23.446;2023-11-18T04:27:17;1.38;;;1.10;;
39454;SDS011;25155;41.890;23.446;2023-11-18T04:29:44;0.98;;;0.98;;
39454;SDS011;25155;41.890;23.446;2023-11-18T04:32:12;1.00;;;1.00;;
39454;SDS011;25155;41.890;23.446;2023-11-18T04:34:39;1.33;;;1.23;;
39454;SDS011;25155;41.890;23.446;2023-11-18T04:37:07;1.30;;;1.20;;
39454;SDS011;25155;41.890;23.446;2023-11-18T04:39:35;2.75;;;1.10;;
39454;SDS011;25155;41.890;23.446;2023-11-18T04:42:04;2.03;;;1.40;;
39454;SDS011;25155;41.890;23.446;2023-11-18T04:44:32;1.33;;;1.23;;
39454;SDS011;25155;41.890;23.446;2023-11-18T04:46:59;1.00;;;1.00;;
39454;SDS011;25155;41.890;23.446;2023-11-18T04:49:27;1.45;;;1.35;;
39454;SDS011;25155;41.890;23.446;2023-11-18T04:51:55;1.30;;;1.20;;
39454;SDS011;25155;41.890;23.446;2023-11-18T04:54:24;1.65;;;1.40;;
39454;SDS011;25155;41.890;23.446;2023-11-18T04:56:51;1.30;;;1.20;;
39454;SDS011;25155;41.890;23.446;2023-11-18T04:59:20;1.75;;;1.50;;
39454;SDS011;25155;41.890;23.446;2023-11-18T05:01:47;1.50;;;1.40;;
39454;SDS011;25155;41.890;23.446;2023-11-18T05:04:15;2.75;;;1.50;;
39454;SDS011;25155;41.890;23.446;2023-11-18T05:06:42;1.50;;;1.40;;
39454;SDS011;25155;41.890;23.446;2023-11-18T05:09:09;1.50;;;1.33;;
39454;SDS011;25155;41.890;23.446;2023-11-18T05:11:37;1.40;;;1.30;;
39454;SDS011;25155;41.890;23.446;2023-11-18T05:14:04;1.35;;;1.27;;
39454;SDS011;25155;41.890;23.446;2023-11-18T05:16:34;1.63;;;1.45;;
39454;SDS011;25155;41.890;23.446;2023-11-18T05:19:01;1.30;;;1.20;;
39454;SDS011;25155;41.890;23.446;2023-11-18T05:21:28;1.40;;;1.30;;
39454;SDS011;25155;41.890;23.446;2023-11-18T05:23:55;1.25;;;1.23;;
39454;SDS011;25155;41.890;23.446;2023-11-18T05:26:23;1.30;;;1.20;;
39454;SDS011;25155;41.890;23.446;2023-11-18T05:28:52;1.52;;;1.30;;
39454;SDS011;25155;41.890;23.446;2023-11-18T05:31:20;1.35;;;1.10;;
39454;SDS011;25155;41.890;23.446;2023-11-18T05:33:48;1.75;;;1.30;;
39454;SDS011;25155;41.890;23.446;2023-11-18T05:36:20;1.00;;;1.00;;
39454;SDS011;25155;41.890;23.446;2023-11-18T05:38:53;1.17;;;1.00;;
39454;SDS011;25155;41.890;23.446;2023-11-18T05:41:21;1.35;;;1.25;;
39454;SDS011;25155;41.890;23.446;2023-11-18T05:43:53;1.55;;;1.30;;
39454;SDS011;25155;41.890;23.446;2023-11-18T05:46:22;1.10;;;1.10;;
39454;SDS011;25155;41.890;23.446;2023-11-18T05:48:56;1.38;;;1.15;;
39454;SDS011;25155;41.890;23.446;2023-11-18T05:51:25;1.93;;;1.67;;
39454;SDS011;25155;41.890;23.446;2023-11-18T05:53:54;2.97;;;1.40;;
39454;SDS011;25155;41.890;23.446;2023-11-18T05:56:21;2.08;;;1.40;;
39454;SDS011;25155;41.890;23.446;2023-11-18T05:58:50;1.58;;;1.40;;
39454;SDS011;25155;41.890;23.446;2023-11-18T06:01:19;2.35;;;1.45;;
39454;SDS011;25155;41.890;23.446;2023-11-18T06:03:46;1.92;;;1.65;;
39454;SDS011;25155;41.890;23.446;2023-11-18T06:06:15;1.73;;;1.38;;
39454;SDS011;25155;41.890;23.446;2023-11-18T06:08:43;3.20;;;1.55;;
39454;SDS011;25155;41.890;23.446;2023-11-18T06:11:12;2.20;;;1.80;;
39454;SDS011;25155;41.890;23.446;2023-11-18T06:13:41;3.67;;;1.70;;
39454;SDS011;25155;41.890;23.446;2023-11-18T06:16:12;3.17;;;1.90;;
39454;SDS011;25155;41.890;23.446;2023-11-18T06:18:41;2.10;;;1.70;;
39454;SDS011;25155;41.890;23.446;2023-11-18T06:21:11;4.15;;;1.90;;
39454;SDS011;25155;41.890;23.446;2023-11-18T06:23:41;4.55;;;2.00;;
39454;SDS011;25155;41.890;23.446;2023-11-18T06:26:09;3.70;;;2.05;;
39454;SDS011;25155;41.890;23.446;2023-11-18T06:28:37;3.05;;;1.90;;
39454;SDS011;25155;41.890;23.446;2023-11-18T06:31:06;3.50;;;1.80;;
39454;SDS011;25155;41.890;23.446;2023-11-18T06:33:38;2.90;;;1.90;;
39454;SDS011;25155;41.890;23.446;2023-11-18T06:36:08;4.05;;;1.95;;
39454;SDS011;25155;41.890;23.446;2023-11-18T06:38:37;2.95;;;2.00;;
39454;SDS011;25155;41.890;23.446;2023-11-18T06:41:07;2.58;;;1.70;;
39454;SDS011;25155;41.890;23.446;2023-11-18T06:43:37;3.03;;;2.08;;
39454;SDS011;25155;41.890;23.446;2023-11-18T06:46:18;2.42;;;1.70;;
39454;SDS011;25155;41.890;23.446;2023-11-18T06:48:47;2.15;;;1.83;;
39454;SDS011;25155;41.890;23.446;2023-11-18T06:51:16;2.60;;;1.90;;
39454;SDS011;25155;41.890;23.446;2023-11-18T06:53:43;2.58;;;1.95;;
39454;SDS011;25155;41.890;23.446;2023-11-18T06:56:12;2.90;;;1.90;;
39454;SDS011;25155;41.890;23.446;2023-11-18T06:58:41;3.10;;;2.28;;
39454;SDS011;25155;41.890;23.446;2023-11-18T07:01:08;3.40;;;1.80;;
39454;SDS011;25155;41.890;23.446;2023-11-18T07:03:36;2.95;;;2.03;;
39454;SDS011;25155;41.890;23.446;2023-11-18T07:06:03;3.28;;;1.75;;
39454;SDS011;25155;41.890;23.446;2023-11-18T07:08:32;2.80;;;1.80;;
39454;SDS011;25155;41.890;23.446;2023-11-18T07:11:01;2.45;;;1.70;;
39454;SDS011;25155;41.890;23.446;2023-11-18T07:13:30;2.58;;;1.80;;
39454;SDS011;25155;41.890;23.446;2023-11-18T07:15:59;2.38;;;1.80;;
39454;SDS011;25155;41.890;23.446;2023-11-18T07:18:28;2.03;;;1.52;;
39454;SDS011;25155;41.890;23.446;2023-11-18T07:20:58;1.98;;;1.77;;
39454;SDS011;25155;41.890;23.446;2023-11-18T07:23:25;2.58;;;1.80;;
39454;SDS011;25155;41.890;23.446;2023-11-18T07:25:53;2.08;;;1.70;;
39454;SDS011;25155;41.890;23.446;2023-11-18T07:28:21;3.08;;;1.83;;
39454;SDS011;25155;41.890;23.446;2023-11-18T07:30:50;2.15;;;1.75;;
39454;SDS011;25155;41.890;23.446;2023-11-18T07:33:17;2.35;;;1.60;;
39454;SDS011;25155;41.890;23.446;2023-11-18T07:35:45;2.15;;;1.70;;
39454;SDS011;25155;41.890;23.446;2023-11-18T07:38:13;3.00;;;1.65;;
39454;SDS011;25155;41.890;23.446;2023-11-18T07:40:41;2.67;;;1.73;;
39454;SDS011;25155;41.890;23.446;2023-11-18T07:43:11;1.80;;;1.42;;
39454;SDS011;25155;41.890;23.446;2023-11-18T07:45:38;2.03;;;1.45;;
39454;SDS011;25155;41.890;23.446;2023-11-18T07:48:10;2.38;;;1.60;;
39454;SDS011;25155;41.890;23.446;2023-11-18T07:50:43;2.45;;;1.67;;
39454;SDS011;25155;41.890;23.446;2023-11-18T07:53:11;2.05;;;1.33;;
39454;SDS011;25155;41.890;23.446;2023-11-18T07:55:38;2.70;;;1.52;;
39454;SDS011;25155;41.890;23.446;2023-11-18T07:58:06;1.83;;;1.50;;
39454;SDS011;25155;41.890;23.446;2023-11-18T08:00:36;1.55;;;1.40;;
39454;SDS011;25155;41.890;23.446;2023-11-18T08:03:04;1.52;;;1.40;;
39454;SDS011;25155;41.890;23.446;2023-11-18T08:05:38;1.55;;;1.40;;
39454;SDS011;25155;41.890;23.446;2023-11-18T08:08:06;2.40;;;1.40;;
39454;SDS011;25155;41.890;23.446;2023-11-18T08:10:34;1.95;;;1.35;;
39454;SDS011;25155;41.890;23.446;2023-11-18T08:13:04;1.83;;;1.50;;
39454;SDS011;25155;41.890;23.446;2023-11-18T08:15:33;1.08;;;0.98;;
39454;SDS011;25155;41.890;23.446;2023-11-18T08:18:02;1.48;;;1.30;;
39454;SDS011;25155;41.890;23.446;2023-11-18T08:20:29;1.35;;;1.20;;
39454;SDS011;25155;41.890;23.446;2023-11-18T08:22:58;2.38;;;1.05;;
39454;SDS011;25155;41.890;23.446;2023-11-18T08:25:25;1.00;;;1.00;;
39454;SDS011;25155;41.890;23.446;2023-11-18T08:27:52;1.20;;;1.13;;
39454;SDS011;25155;41.890;23.446;2023-11-18T08:30:20;0.82;;;0.82;;
39454;SDS011;25155;41.890;23.446;2023-11-18T08:32:49;0.90;;;0.90;;
39454;SDS011;25155;41.890;23.446;2023-11-18T08:35:16;2.88;;;1.20;;
39454;SDS011;25155;41.890;23.446;2023-11-18T08:37:44;3.97;;;1.13;;
39454;SDS011;25155;41.890;23.446;2023-11-18T08:40:14;3.08;;;1.48;;
39454;SDS011;25155;41.890;23.446;2023-11-18T08:42:46;1.35;;;1.02;;
39454;SDS011;25155;41.890;23.446;2023-11-18T08:45:15;2.28;;;1.30;;
39454;SDS011;25155;41.890;23.446;2023-11-18T08:47:44;1.20;;;1.10;;
39454;SDS011;25155;41.890;23.446;2023-11-18T08:50:13;2.67;;;1.02;;
39454;SDS011;25155;41.890;23.446;2023-11-18T08:52:43;1.65;;;1.08;;
39454;SDS011;25155;41.890;23.446;2023-11-18T08:55:12;1.13;;;1.10;;
39454;SDS011;25155;41.890;23.446;2023-11-18T08:57:48;2.08;;;0.85;;
39454;SDS011;25155;41.890;23.446;2023-11-18T09:00:24;1.40;;;1.17;;
39454;SDS011;25155;41.890;23.446;2023-11-18T09:03:13;1.95;;;1.30;;
39454;SDS011;25155;41.890;23.446;2023-11-18T09:05:50;1.10;;;1.00;;
39454;SDS011;25155;41.890;23.446;2023-11-18T09:08:26;0.98;;;0.85;;
39454;SDS011;25155;41.890;23.446;2023-11-18T09:10:55;1.85;;;1.02;;
39454;SDS011;25155;41.890;23.446;2023-11-18T09:13:25;1.45;;;0.90;;
39454;SDS011;25155;41.890;23.446;2023-11-18T09:18:22;0.75;;;0.75;;
39454;SDS011;25155;41.890;23.446;2023-11-18T09:20:51;1.00;;;0.95;;
39454;SDS011;25155;41.890;23.446;2023-11-18T09:23:20;2.92;;;1.02;;
39454;SDS011;25155;41.890;23.446;2023-11-18T09:25:51;1.20;;;1.00;;
39454;SDS011;25155;41.890;23.446;2023-11-18T09:28:19;1.42;;;1.13;;
39454;SDS011;25155;41.890;23.446;2023-11-18T09:30:49;1.25;;;1.02;;
39454;SDS011;25155;41.890;23.446;2023-11-18T09:33:19;1.60;;;0.73;;
39454;SDS011;25155;41.890;23.446;2023-11-18T09:35:58;1.35;;;1.08;;
39454;SDS011;25155;41.890;23.446;2023-11-18T09:38:27;1.13;;;0.93;;
39454;SDS011;25155;41.890;23.446;2023-11-18T09:40:53;1.38;;;1.20;;
39454;SDS011;25155;41.890;23.446;2023-11-18T09:43:21;1.63;;;1.02;;
39454;SDS011;25155;41.890;23.446;2023-11-18T09:45:53;3.63;;;1.08;;
39454;SDS011;25155;41.890;23.446;2023-11-18T09:48:22;3.08;;;1.10;;
39454;SDS011;25155;41.890;23.446;2023-11-18T09:50:52;0.88;;;0.88;;
39454;SDS011;25155;41.890;23.446;2023-11-18T09:53:20;1.10;;;1.00;;
39454;SDS011;25155;41.890;23.446;2023-11-18T09:55:56;1.23;;;0.80;;
39454;SDS011;25155;41.890;23.446;2023-11-18T09:58:36;2.08;;;0.90;;
39454;SDS011;25155;41.890;23.446;2023-11-18T10:01:10;0.95;;;0.85;;
39454;SDS011;25155;41.890;23.446;2023-11-18T10:03:44;3.40;;;0.80;;
39454;SDS011;25155;41.890;23.446;2023-11-18T10:06:12;1.27;;;1.10;;
39454;SDS011;25155;41.890;23.446;2023-11-18T10:08:41;1.40;;;0.77;;
39454;SDS011;25155;41.890;23.446;2023-11-18T10:11:11;1.08;;;0.90;;
39454;SDS011;25155;41.890;23.446;2023-11-18T10:13:39;1.00;;;1.00;;
39454;SDS011;25155;41.890;23.446;2023-11-18T10:16:11;1.75;;;1.00;;
39454;SDS011;25155;41.890;23.446;2023-11-18T10:18:38;2.38;;;1.00;;
39454;SDS011;25155;41.890;23.446;2023-11-18T10:21:14;0.90;;;0.90;;
39454;SDS011;25155;41.890;23.446;2023-11-18T10:23:58;0.90;;;0.85;;
39454;SDS011;25155;41.890;23.446;2023-11-18T10:26:27;1.48;;;0.80;;
39454;SDS011;25155;41.890;23.446;2023-11-18T10:28:55;2.10;;;0.90;;
39454;SDS011;25155;41.890;23.446;2023-11-18T10:31:34;1.80;;;1.20;;
39454;SDS011;25155;41.890;23.446;2023-11-18T10:34:03;1.63;;;0.88;;
39454;SDS011;25155;41.890;23.446;2023-11-18T10:36:31;0.93;;;0.90;;
39454;SDS011;25155;41.890;23.446;2023-11-18T10:38:58;1.83;;;1.10;;
39454;SDS011;25155;41.890;23.446;2023-11-18T10:41:39;3.40;;;1.17;;
39454;SDS011;25155;41.890;23.446;2023-11-18T10:44:08;2.08;;;1.13;;
39454;SDS011;25155;41.890;23.446;2023-11-18T10:46:40;1.02;;;0.95;;
39454;SDS011;25155;41.890;23.446;2023-11-18T10:49:18;1.20;;;1.10;;
39454;SDS011;25155;41.890;23.446;2023-11-18T10:51:47;1.05;;;0.85;;
39454;SDS011;25155;41.890;23.446;2023-11-18T10:54:16;2.92;;;1.00;;
39454;SDS011;25155;41.890;23.446;2023-11-18T10:56:47;2.50;;;0.75;;
39454;SDS011;25155;41.890;23.446;2023-11-18T10:59:15;1.60;;;1.00;;
39454;SDS011;25155;41.890;23.446;2023-11-18T11:01:45;1.35;;;1.08;;
39454;SDS011;25155;41.890;23.446;2023-11-18T11:04:14;2.40;;;0.97;;
39454;SDS011;25155;41.890;23.446;2023-11-18T11:06:46;1.13;;;1.02;;
39454;SDS011;25155;41.890;23.446;2023-11-18T11:09:18;2.30;;;0.95;;
39454;SDS011;25155;41.890;23.446;2023-11-18T11:11:53;1.45;;;1.20;;
39454;SDS011;25155;41.890;23.446;2023-11-18T11:14:24;1.30;;;1.20;;
39454;SDS011;25155;41.890;23.446;2023-11-18T11:17:03;1.90;;;1.20;;
39454;SDS011;25155;41.890;23.446;2023-11-18T11:19:39;1.17;;;1.10;;
39454;SDS011;25155;41.890;23.446;2023-11-18T11:22:22;1.00;;;1.00;;
39454;SDS011;25155;41.890;23.446;2023-11-18T11:24:59;0.80;;;0.80;;
39454;SDS011;25155;41.890;23.446;2023-11-18T11:27:39;2.17;;;1.13;;
39454;SDS011;25155;41.890;23.446;2023-11-18T11:30:20;4.20;;;1.15;;
39454;SDS011;25155;41.890;23.446;2023-11-18T11:32:52;1.20;;;1.10;;
39454;SDS011;25155;41.890;23.446;2023-11-18T11:35:36;1.17;;;1.08;;
39454;SDS011;25155;41.890;23.446;2023-11-18T11:38:10;1.10;;;1.00;;
39454;SDS011;25155;41.890;23.446;2023-11-18T11:40:39;1.42;;;1.02;;
39454;SDS011;25155;41.890;23.446;2023-11-18T11:43:09;1.30;;;1.20;;
39454;SDS011;25155;41.890;23.446;2023-11-18T11:45:37;1.50;;;1.10;;
39454;SDS011;25155;41.890;23.446;2023-11-18T11:48:07;1.13;;;1.10;;
39454;SDS011;25155;41.890;23.446;2023-11-18T11:50:55;1.40;;;1.17;;
39454;SDS011;25155;41.890;23.446;2023-11-18T11:53:39;1.05;;;0.95;;
39454;SDS011;25155;41.890;23.446;2023-11-18T11:56:18;2.63;;;1.40;;
39454;SDS011;25155;41.890;23.446;2023-11-18T11:58:50;1.55;;;1.20;;
39454;SDS011;25155;41.890;23.446;2023-11-18T12:01:24;3.25;;;1.50;;
39454;SDS011;25155;41.890;23.446;2023-11-18T12:04:01;1.73;;;1.40;;
39454;SDS011;25155;41.890;23.446;2023-11-18T12:06:32;1.38;;;1.27;;
39454;SDS011;25155;41.890;23.446;2023-11-18T12:09:01;1.98;;;1.50;;
39454;SDS011;25155;41.890;23.446;2023-11-18T12:11:32;1.27;;;1.20;;
39454;SDS011;25155;41.890;23.446;2023-11-18T12:14:00;2.15;;;1.50;;
39454;SDS011;25155;41.890;23.446;2023-11-18T12:19:35;1.85;;;1.10;;
39454;SDS011;25155;41.890;23.446;2023-11-18T12:22:10;1.70;;;1.30;;
39454;SDS011;25155;41.890;23.446;2023-11-18T12:28:11;1.45;;;1.20;;
39454;SDS011;25155;41.890;23.446;2023-11-18T12:33:21;1.88;;;1.48;;
39454;SDS011;25155;41.890;23.446;2023-11-18T12:42:20;5.05;;;1.50;;
39454;SDS011;25155;41.890;23.446;2023-11-18T12:48:07;2.55;;;1.50;;
39454;SDS011;25155;41.890;23.446;2023-11-18T12:50:39;3.47;;;1.85;;
39454;SDS011;25155;41.890;23.446;2023-11-18T12:53:11;2.72;;;1.30;;
39454;SDS011;25155;41.890;23.446;2023-11-18T12:55:40;1.58;;;1.48;;
39454;SDS011;25155;41.890;23.446;2023-11-18T12:58:09;1.92;;;1.33;;
39454;SDS011;25155;41.890;23.446;2023-11-18T13:00:40;1.60;;;1.40;;
39454;SDS011;25155;41.890;23.446;2023-11-18T13:03:09;2.30;;;1.50;;
39454;SDS011;25155;41.890;23.446;2023-11-18T13:05:40;2.42;;;1.50;;
39454;SDS011;25155;41.890;23.446;2023-11-18T13:08:09;2.10;;;1.50;;
39454;SDS011;25155;41.890;23.446;2023-11-18T13:10:38;4.38;;;1.77;;
39454;SDS011;25155;41.890;23.446;2023-11-18T13:13:06;2.58;;;1.80;;
39454;SDS011;25155;41.890;23.446;2023-11-18T13:15:34;1.52;;;1.40;;
39454;SDS011;25155;41.890;23.446;2023-11-18T13:18:03;2.95;;;1.70;;
39454;SDS011;25155;41.890;23.446;2023-11-18T13:20:32;2.45;;;1.50;;
39454;SDS011;25155;41.890;23.446;2023-11-18T13:23:01;2.42;;;1.50;;
39454;SDS011;25155;41.890;23.446;2023-11-18T13:25:35;2.45;;;1.50;;
39454;SDS011;25155;41.890;23.446;2023-11-18T13:28:04;3.45;;;1.60;;
39454;SDS011;25155;41.890;23.446;2023-11-18T13:30:32;1.70;;;1.50;;
39454;SDS011;25155;41.890;23.446;2023-11-18T13:33:00;1.48;;;1.38;;
39454;SDS011;25155;41.890;23.446;2023-11-18T13:35:28;2.45;;;1.40;;
39454;SDS011;25155;41.890;23.446;2023-11-18T13:37:56;3.20;;;1.35;;
39454;SDS011;25155;41.890;23.446;2023-11-18T13:40:24;2.80;;;1.55;;
39454;SDS011;25155;41.890;23.446;2023-11-18T13:45:35;2.13;;;1.50;;
39454;SDS011;25155;41.890;23.446;2023-11-18T13:48:04;2.08;;;1.60;;
39454;SDS011;25155;41.890;23.446;2023-11-18T13:50:34;2.95;;;1.70;;
39454;SDS011;25155;41.890;23.446;2023-11-18T13:53:02;2.25;;;1.60;;
39454;SDS011;25155;41.890;23.446;2023-11-18T13:55:31;2.15;;;1.60;;
39454;SDS011;25155;41.890;23.446;2023-11-18T13:57:58;1.60;;;1.50;;
39454;SDS011;25155;41.890;23.446;2023-11-18T14:00:28;3.92;;;1.58;;
39454;SDS011;25155;41.890;23.446;2023-11-18T14:02:55;2.22;;;1.65;;
39454;SDS011;25155;41.890;23.446;2023-11-18T14:05:23;2.05;;;1.50;;
39454;SDS011;25155;41.890;23.446;2023-11-18T14:07:52;1.73;;;1.40;;
39454;SDS011;25155;41.890;23.446;2023-11-18T14:10:21;3.47;;;1.75;;
39454;SDS011;25155;41.890;23.446;2023-11-18T14:13:00;2.22;;;1.63;;
39454;SDS011;25155;41.890;23.446;2023-11-18T14:15:32;1.85;;;1.65;;
39454;SDS011;25155;41.890;23.446;2023-11-18T14:18:01;2.63;;;1.75;;
39454;SDS011;25155;41.890;23.446;2023-11-18T14:20:29;2.40;;;1.63;;
39454;SDS011;25155;41.890;23.446;2023-11-18T14:22:58;2.42;;;1.83;;
39454;SDS011;25155;41.890;23.446;2023-11-18T14:25:25;2.85;;;1.80;;
39454;SDS011;25155;41.890;23.446;2023-11-18T14:27:52;6.00;;;1.90;;
39454;SDS011;25155;41.890;23.446;2023-11-18T14:30:20;2.78;;;1.77;;
39454;SDS011;25155;41.890;23.446;2023-11-18T14:32:51;2.10;;;1.70;;
39454;SDS011;25155;41.890;23.446;2023-11-18T14:35:19;2.88;;;1.58;;
39454;SDS011;25155;41.890;23.446;2023-11-18T14:37:48;2.92;;;1.75;;
39454;SDS011;25155;41.890;23.446;2023-11-18T14:40:15;3.17;;;2.00;;
39454;SDS011;25155;41.890;23.446;2023-11-18T14:42:44;1.88;;;1.60;;
39454;SDS011;25155;41.890;23.446;2023-11-18T14:45:13;2.42;;;1.88;;
39454;SDS011;25155;41.890;23.446;2023-11-18T14:47:41;1.70;;;1.60;;
39454;SDS011;25155;41.890;23.446;2023-11-18T14:50:11;3.10;;;1.98;;
39454;SDS011;25155;41.890;23.446;2023-11-18T14:52:43;3.20;;;1.90;;
39454;SDS011;25155;41.890;23.446;2023-11-18T14:55:11;3.00;;;1.70;;
39454;SDS011;25155;41.890;23.446;2023-11-18T14:57:39;2.20;;;1.70;;
39454;SDS011;25155;41.890;23.446;2023-11-18T15:00:09;3.63;;;1.88;;
39454;SDS011;25155;41.890;23.446;2023-11-18T15:02:45;4.40;;;1.88;;
39454;SDS011;25155;41.890;23.446;2023-11-18T15:05:15;2.72;;;1.73;;
39454;SDS011;25155;41.890;23.446;2023-11-18T15:07:44;2.80;;;1.60;;
39454;SDS011;25155;41.890;23.446;2023-11-18T15:10:14;2.42;;;1.80;;
39454;SDS011;25155;41.890;23.446;2023-11-18T15:12:45;3.55;;;1.70;;
39454;SDS011;25155;41.890;23.446;2023-11-18T15:15:13;2.45;;;1.80;;